Airfield :
LOGIN :

Register | Disclaimer

   EN    FR    IT 

 










Legend :    VFR   Marginal VFR   IFR   Intensive IFR   Very Intensive IFR
Visi :
Ceiling :
>= 8 km
>= 3000ft
5 to 8 km
1000 to 3000 ft
1500m to 5 km
500 to 1000 ft
800 to 1500m
200 to 500 ft
< 800m
< 200 ft
Symbols :   Thunderstorms  Fog  Heavy snow  Heavy precipitations  Wind > 20 kt
SIGMETs :     Misc.  Thunderstorms  Icing  Turbulence  Mountain Waves  Volcanic Ashes







- Airport Elevation : 277 ft
- IATA code : JER
- Download approach charts


EGJJ - Jersey

CURRENT METAR :
  • 220850Z 07012KT 9999 SCT019 04/00 Q1021

EXPIRED METARs :
  • 220820Z 08009KT 9999 SCT020 03/M00 Q1021
  • 220750Z 08006KT 6000 FEW008 02/M00 Q1021
  • 220720Z 10005KT 5000 HZ FEW045 01/M00 Q1021
  • 220650Z 10007KT 4000 HZ FEW045 M00/M02 Q1021
  • 220620Z 09009KT 7000 FEW022 00/M02 Q1021
  • 220550Z 10006KT 9000 FEW020 01/M01 Q1021

TAF TAF EGJJ
Valid from the 22 at 09:00 until the 22 at 18:00 UTC


220759Z 2209/2218 07013KT 9000 FEW020
ATIS : +44 1534 498 073
No reported NOTAMs for that airfield.



MET'MAP, your aeronautical weather chart ! - Copyright ORBIFLY December 2007 - Disclaimer

ORBIFLY MET'MAP TEAM :

Programming & Development : Alexandra Zaïnal
Concept & Development : Baudouin d'Aumeries
Co-Development & Prog : Marc-Olivier Méhu
Technical & hardware support : Manuel Goepfert

Contact : metmap@orbifly.com




SOURCES & CREDITS :

   NOAA